createdAt,value
2022-09-27T00:02:06.432Z,99857.22
2022-09-27T00:04:32.836Z,99851.94
2022-09-27T00:07:00.126Z,99853.50
2022-09-27T00:09:26.552Z,99860.22
2022-09-27T00:11:52.863Z,99865.00
2022-09-27T00:14:19.298Z,99874.88
2022-09-27T00:16:45.700Z,99857.50
2022-09-27T00:19:18.377Z,99864.47
2022-09-27T00:21:46.369Z,99860.72
2022-09-27T00:24:15.191Z,99868.72
2022-09-27T00:26:41.867Z,99865.53
2022-09-27T00:29:10.586Z,99860.19
2022-09-27T00:31:38.168Z,99861.25
2022-09-27T00:34:06.607Z,99861.81
2022-09-27T00:36:34.214Z,99858.91
2022-09-27T00:39:00.965Z,99860.78
2022-09-27T00:41:33.688Z,99854.94
2022-09-27T00:44:04.497Z,99858.16
2022-09-27T00:46:44.571Z,99854.16
2022-09-27T00:49:33.093Z,99863.28
2022-09-27T00:52:05.823Z,99860.88
2022-09-27T00:54:36.544Z,99857.97
2022-09-27T00:57:04.927Z,99862.03
2022-09-27T00:59:38.379Z,99866.56
2022-09-27T01:02:07.217Z,99858.00
2022-09-27T01:04:37.396Z,99874.34
2022-09-27T01:07:03.840Z,99880.22
2022-09-27T01:09:30.564Z,99878.94
2022-09-27T01:12:21.697Z,99880.84
2022-09-27T01:15:00.378Z,99875.75
2022-09-27T01:18:05.486Z,99876.34
2022-09-27T01:20:53.442Z,99882.50
2022-09-27T01:23:39.366Z,99888.66
2022-09-27T01:26:27.262Z,99889.72
2022-09-27T01:29:15.831Z,99895.09
2022-09-27T01:32:04.882Z,99887.34
2022-09-27T01:35:08.461Z,99901.28
2022-09-27T01:37:40.816Z,99899.69
2022-09-27T01:40:21.764Z,99900.75
2022-09-27T01:43:06.586Z,99894.38
2022-09-27T01:45:58.625Z,99900.25
2022-09-27T01:48:33.795Z,99901.59
2022-09-27T01:51:09.398Z,99903.19
2022-09-27T01:53:40.839Z,99910.13
2022-09-27T01:56:16.703Z,99901.03
2022-09-27T01:58:52.573Z,99904.50
2022-09-27T02:01:22.722Z,99892.50
2022-09-27T02:03:51.655Z,99888.50
2022-09-27T02:06:24.542Z,99890.38
2022-09-27T02:09:06.064Z,99892.78
2022-09-27T02:11:35.813Z,99893.84
2022-09-27T02:14:29.761Z,99885.06
2022-09-27T02:17:17.639Z,99887.47
2022-09-27T02:19:54.377Z,99886.66
2022-09-27T02:22:56.492Z,99884.28
2022-09-27T02:25:25.770Z,99892.28
2022-09-27T02:28:07.063Z,99896.28
2022-09-27T02:30:33.734Z,99881.63
2022-09-27T02:33:00.182Z,99883.78
2022-09-27T02:35:33.721Z,99877.66
2022-09-27T02:38:01.029Z,99884.09
2022-09-27T02:40:31.552Z,99881.97
2022-09-27T02:42:58.658Z,99877.97
2022-09-27T02:45:37.003Z,99876.66
2022-09-27T02:48:30.607Z,99879.09
2022-09-27T02:51:25.130Z,99877.50
2022-09-27T02:54:12.337Z,99875.13
2022-09-27T02:56:59.015Z,99876.47
2022-09-27T02:59:50.061Z,99883.13
2022-09-27T03:02:28.314Z,99885.03
2022-09-27T03:05:00.892Z,99883.44
2022-09-27T03:07:27.555Z,99884.50
2022-09-27T03:09:54.823Z,99879.44
2022-09-27T03:12:27.776Z,99877.84
2022-09-27T03:15:00.158Z,99878.91
2022-09-27T03:17:26.901Z,99874.38
2022-09-27T03:19:53.308Z,99878.34
2022-09-27T03:22:19.624Z,99874.88
2022-09-27T03:24:46.024Z,99869.56
2022-09-27T03:27:12.706Z,99878.09
2022-09-27T03:29:39.021Z,99878.63
2022-09-27T03:32:06.323Z,99880.47
2022-09-27T03:34:32.707Z,99876.72
2022-09-27T03:36:59.168Z,99875.66
2022-09-27T03:39:25.541Z,99876.19
2022-09-27T03:41:51.870Z,99877.25
2022-09-27T03:44:18.185Z,99877.25
2022-09-27T03:46:44.736Z,99881.81
2022-09-27T03:49:11.089Z,99884.47
2022-09-27T03:51:37.631Z,99890.06
2022-09-27T03:54:04.159Z,99890.88
2022-09-27T03:56:30.496Z,99887.69
2022-09-27T03:58:56.805Z,99885.28
2022-09-27T04:01:23.197Z,99885.03
2022-09-27T04:03:49.898Z,99889.06
2022-09-27T04:06:17.832Z,99897.31
2022-09-27T04:08:44.644Z,99890.13
2022-09-27T04:11:10.988Z,99890.41
2022-09-27T04:13:37.346Z,99899.50
2022-09-27T04:16:03.906Z,99888.81
2022-09-27T04:18:30.281Z,99894.69
2022-09-27T04:20:56.642Z,99886.41
2022-09-27T04:23:29.065Z,99888.00
2022-09-27T04:25:56.309Z,99893.34
2022-09-27T04:28:23.363Z,99891.19
2022-09-27T04:30:49.715Z,99886.69
2022-09-27T04:33:16.172Z,99897.34
2022-09-27T04:36:01.963Z,99892.28
2022-09-27T04:38:28.342Z,99898.44
2022-09-27T04:40:54.748Z,99899.78
2022-09-27T04:43:21.144Z,99898.19
2022-09-27T04:45:47.603Z,99899.25
2022-09-27T04:48:13.975Z,99906.47
2022-09-27T04:50:41.179Z,99906.47
2022-09-27T04:53:07.497Z,99911.78
2022-09-27T04:55:33.864Z,99907.78
2022-09-27T04:58:01.544Z,99913.13
2022-09-27T05:00:28.896Z,99908.31
2022-09-27T05:02:55.254Z,99910.19
2022-09-27T05:05:21.952Z,99901.66
2022-09-27T05:07:48.267Z,99908.59
2022-09-27T05:10:14.583Z,99903.50
2022-09-27T05:12:40.887Z,99904.88
2022-09-27T05:15:08.135Z,99908.06
2022-09-27T05:17:34.478Z,99904.81
2022-09-27T05:20:00.980Z,99903.50
2022-09-27T05:22:27.327Z,99906.97
2022-09-27T05:24:53.673Z,99912.53
2022-09-27T05:27:20.401Z,99913.88
2022-09-27T05:29:47.643Z,99916.00
2022-09-27T05:32:14.956Z,99925.06
2022-09-27T05:34:41.519Z,99907.44
2022-09-27T05:37:07.873Z,99906.13
2022-09-27T05:39:34.208Z,99907.75
2022-09-27T05:42:00.574Z,99904.81
2022-09-27T05:44:26.956Z,99915.22
2022-09-27T05:46:53.295Z,99920.53
2022-09-27T05:49:20.255Z,99917.63
2022-09-27T05:51:47.553Z,99926.66
2022-09-27T05:54:13.975Z,99925.88
2022-09-27T05:56:40.365Z,99921.31
2022-09-27T05:59:06.751Z,99927.69
2022-09-27T06:01:33.641Z,99924.47
2022-09-27T06:04:00.119Z,99928.97
2022-09-27T06:06:26.448Z,99929.25
2022-09-27T06:08:52.842Z,99928.44
2022-09-27T06:11:19.207Z,99926.00
2022-09-27T06:13:45.858Z,99921.44
2022-09-27T06:16:12.707Z,99918.72
2022-09-27T06:18:39.327Z,99932.81
2022-09-27T06:21:06.713Z,99929.91
2022-09-27T06:23:33.603Z,99941.88
2022-09-27T06:26:05.654Z,99949.09
2022-09-27T06:28:34.955Z,99950.97
2022-09-27T06:31:01.621Z,99948.31
2022-09-27T06:33:28.381Z,99952.56
2022-09-27T06:35:54.959Z,99944.28
2022-09-27T06:38:21.492Z,99948.78
2022-09-27T06:40:48.056Z,99947.72
2022-09-27T06:43:18.051Z,99946.94
2022-09-27T06:45:44.483Z,99943.41
2022-09-27T06:48:12.974Z,99950.34
2022-09-27T06:50:41.494Z,99953.53
2022-09-27T06:53:10.606Z,99953.97
2022-09-27T06:55:37.387Z,99974.50
2022-09-27T06:58:22.773Z,99968.31
2022-09-27T07:00:53.579Z,99962.16
2022-09-27T07:03:23.071Z,99971.25
2022-09-27T07:05:57.307Z,99972.88
2022-09-27T07:08:26.388Z,99967.84
2022-09-27T07:10:53.551Z,99970.25
2022-09-27T07:13:19.867Z,99965.72
2022-09-27T07:15:46.315Z,99968.91
2022-09-27T07:18:12.636Z,99968.31
2022-09-27T07:20:39.744Z,99974.97
2022-09-27T07:23:09.291Z,99969.25
2022-09-27T07:25:35.927Z,99975.34
2022-09-27T07:28:07.516Z,99971.63
2022-09-27T07:30:34.904Z,99982.31
2022-09-27T07:33:03.119Z,99990.53
2022-09-27T07:35:29.723Z,99989.41
2022-09-27T07:37:58.758Z,99987.97
2022-09-27T07:40:26.519Z,99987.09
2022-09-27T07:42:57.672Z,99988.31
2022-09-27T07:45:25.157Z,99989.22
2022-09-27T07:47:51.565Z,99995.13
2022-09-27T07:50:18.035Z,99989.34
2022-09-27T07:52:46.953Z,99995.25
2022-09-27T07:55:14.887Z,99990.97
2022-09-27T07:57:41.761Z,99997.09
2022-09-27T08:00:14.972Z,99998.47
2022-09-27T08:02:42.544Z,99991.53
2022-09-27T08:05:10.027Z,99995.25
2022-09-27T08:07:37.138Z,99997.84
2022-09-27T08:10:03.860Z,100004.75
2022-09-27T08:12:30.193Z,100006.38
2022-09-27T08:14:58.514Z,100008.47
2022-09-27T08:17:24.854Z,100007.38
2022-09-27T08:19:51.191Z,100008.66
2022-09-27T08:22:17.520Z,100011.81
2022-09-27T08:24:43.941Z,100007.72
2022-09-27T08:27:12.064Z,100017.28
2022-09-27T08:29:41.730Z,100010.50
2022-09-27T08:32:09.412Z,100005.91
2022-09-27T08:34:35.772Z,100008.47
2022-09-27T08:37:02.414Z,100016.13
2022-09-27T08:39:28.772Z,100019.81
2022-09-27T08:42:01.263Z,100020.75
2022-09-27T08:45:11.920Z,100031.97
2022-09-27T08:47:46.537Z,100040.06
2022-09-27T08:50:29.159Z,100036.13
2022-09-27T08:53:05.215Z,100043.16
2022-09-27T08:55:41.795Z,100037.34
2022-09-27T08:58:28.400Z,100031.53
2022-09-27T09:00:58.102Z,100038.50
2022-09-27T09:03:28.398Z,100025.63
2022-09-27T09:06:11.446Z,100026.63
2022-09-27T09:08:46.297Z,100024.03
2022-09-27T09:11:53.136Z,100030.06
2022-09-27T09:14:38.026Z,100033.28
2022-09-27T09:17:54.067Z,100028.34
2022-09-27T09:20:32.306Z,100034.16
2022-09-27T09:23:17.033Z,100033.88
2022-09-27T09:26:08.375Z,100035.25
2022-09-27T09:28:34.676Z,100042.47
2022-09-27T09:31:25.592Z,100052.47
2022-09-27T09:34:15.586Z,100050.63
2022-09-27T09:36:46.182Z,100045.53
2022-09-27T09:39:18.836Z,100053.28
2022-09-27T09:42:06.749Z,100046.31
2022-09-27T09:44:56.348Z,100043.09
2022-09-27T09:47:45.803Z,100042.25
2022-09-27T09:50:26.840Z,100059.09
2022-09-27T09:53:04.366Z,100052.06
2022-09-27T09:55:34.792Z,100054.44
2022-09-27T09:58:20.151Z,100051.72
2022-09-27T10:00:48.185Z,100054.97
2022-09-27T10:03:14.564Z,100059.22
2022-09-27T10:05:44.444Z,100057.56
2022-09-27T10:08:21.541Z,100062.31
2022-09-27T10:10:48.300Z,100058.22
2022-09-27T10:13:22.062Z,100059.84
2022-09-27T10:16:05.585Z,100057.56
2022-09-27T10:18:32.787Z,100049.72
2022-09-27T10:21:03.126Z,100058.78
2022-09-27T10:23:30.032Z,100051.84
2022-09-27T10:25:59.675Z,100051.41
2022-09-27T10:28:34.934Z,100047.19
2022-09-27T10:31:04.515Z,100047.50
2022-09-27T10:33:32.341Z,100049.66
2022-09-27T10:36:00.453Z,100048.78
2022-09-27T10:38:32.795Z,100046.69
2022-09-27T10:41:21.781Z,100050.91
2022-09-27T10:43:48.267Z,100048.97
2022-09-27T10:46:19.252Z,100048.06
2022-09-27T10:48:45.602Z,100043.72
2022-09-27T10:51:38.514Z,100048.44
2022-09-27T10:54:05.446Z,100041.50
2022-09-27T10:56:34.577Z,100045.78
2022-09-27T10:59:02.853Z,100041.41
2022-09-27T11:01:45.392Z,100042.63
2022-09-27T11:04:24.430Z,100048.78
2022-09-27T11:06:51.156Z,100054.81
2022-09-27T11:09:26.439Z,100062.06
2022-09-27T11:12:13.446Z,100065.47
2022-09-27T11:14:40.165Z,100061.72
2022-09-27T11:17:16.056Z,100058.50
2022-09-27T11:20:11.127Z,100055.84
2022-09-27T11:23:11.458Z,100057.22
2022-09-27T11:25:42.379Z,100070.00
2022-09-27T11:28:39.422Z,100067.84
2022-09-27T11:31:36.720Z,100072.56
2022-09-27T11:34:31.637Z,100067.78
2022-09-27T11:37:11.575Z,100070.84
2022-09-27T11:39:46.875Z,100066.13
2022-09-27T11:42:40.863Z,100070.44
2022-09-27T11:45:45.294Z,100066.31
2022-09-27T11:48:29.115Z,100060.75
2022-09-27T11:51:14.058Z,100066.34
2022-09-27T11:54:17.970Z,100063.44
2022-09-27T11:56:58.085Z,100059.47
2022-09-27T11:59:27.143Z,100047.94
2022-09-27T12:01:59.850Z,100048.00
2022-09-27T12:04:44.685Z,100046.47
2022-09-27T12:07:26.225Z,100047.03
2022-09-27T12:09:59.858Z,100040.91
2022-09-27T12:12:31.395Z,100051.69
2022-09-27T12:14:58.516Z,100058.28
2022-09-27T12:17:50.936Z,100049.75
2022-09-27T12:20:28.488Z,100052.84
2022-09-27T12:23:00.927Z,100069.66
2022-09-27T12:25:31.624Z,100072.22
2022-09-27T12:28:05.327Z,100067.59
2022-09-27T12:30:35.437Z,100066.81
2022-09-27T12:33:11.133Z,100065.78
2022-09-27T12:35:49.233Z,100066.59
2022-09-27T12:38:21.304Z,100075.69
2022-09-27T12:40:52.572Z,100067.19
2022-09-27T12:43:24.039Z,100075.22
2022-09-27T12:46:13.117Z,100072.69
2022-09-27T12:48:51.662Z,100076.97
2022-09-27T12:51:21.742Z,100076.44
2022-09-27T12:54:08.960Z,100062.00
2022-09-27T12:57:02.008Z,100052.34
2022-09-27T12:59:34.284Z,100045.94
2022-09-27T13:02:16.142Z,100064.13
2022-09-27T13:05:04.272Z,100053.97
2022-09-27T13:07:49.416Z,100056.06
2022-09-27T13:10:30.884Z,100056.03
2022-09-27T13:13:00.205Z,100054.00
2022-09-27T13:15:31.544Z,100042.47
2022-09-27T13:18:01.573Z,100045.13
2022-09-27T13:20:30.673Z,100043.72
2022-09-27T13:22:58.808Z,100041.50
2022-09-27T13:25:55.518Z,100042.53
2022-09-27T13:28:45.652Z,100037.34
2022-09-27T13:31:15.984Z,100038.53
2022-09-27T13:33:53.855Z,100033.13
2022-09-27T13:36:30.693Z,100036.09
2022-09-27T13:39:06.191Z,100032.66
2022-09-27T13:41:44.552Z,100029.31
2022-09-27T13:44:32.797Z,100030.56
2022-09-27T13:47:11.375Z,100026.41
2022-09-27T13:49:40.460Z,100025.25
2022-09-27T13:52:20.565Z,100020.78
2022-09-27T13:54:53.374Z,100018.06
2022-09-27T13:57:47.487Z,100010.13
2022-09-27T14:00:20.054Z,100005.13
2022-09-27T14:03:07.687Z,99999.28
2022-09-27T14:05:40.647Z,99998.28
2022-09-27T14:08:20.155Z,100000.66
2022-09-27T14:10:46.736Z,99999.53
2022-09-27T14:13:20.200Z,99999.53
2022-09-27T14:15:48.034Z,99995.22
2022-09-27T14:18:17.061Z,100004.50
2022-09-27T14:20:47.701Z,99999.97
2022-09-27T14:23:26.035Z,100000.97
2022-09-27T14:25:54.800Z,99993.31
2022-09-27T14:28:27.318Z,99993.91
2022-09-27T14:31:13.675Z,99997.69
2022-09-27T14:33:40.086Z,99997.28
2022-09-27T14:36:26.142Z,99996.47
2022-09-27T14:38:52.700Z,99996.28
2022-09-27T14:41:19.053Z,100003.03
2022-09-27T14:43:50.454Z,99993.56
2022-09-27T14:46:28.692Z,99987.88
2022-09-27T14:48:55.872Z,99982.31
2022-09-27T14:51:28.970Z,99975.34
2022-09-27T14:53:58.835Z,99975.06
2022-09-27T14:56:30.280Z,99970.38
2022-09-27T14:59:09.198Z,99971.91
2022-09-27T15:01:35.773Z,99970.97
2022-09-27T15:04:08.308Z,99982.09
2022-09-27T15:06:38.181Z,99973.97
2022-09-27T15:09:06.925Z,99977.72
2022-09-27T15:11:34.631Z,99977.72
2022-09-27T15:14:03.243Z,99978.88
2022-09-27T15:16:31.248Z,99973.50
2022-09-27T15:19:16.095Z,99972.72
2022-09-27T15:21:42.738Z,99977.28
2022-09-27T15:24:36.689Z,99970.75
2022-09-27T15:27:04.165Z,99961.63
2022-09-27T15:29:30.736Z,99966.47
2022-09-27T15:32:06.780Z,99959.69
2022-09-27T15:34:35.351Z,99954.72
2022-09-27T15:37:03.640Z,99956.59
2022-09-27T15:39:33.700Z,99944.38
2022-09-27T15:42:14.518Z,99947.44
2022-09-27T15:44:49.502Z,99941.72
2022-09-27T15:47:31.897Z,99936.44
2022-09-27T15:49:59.396Z,99945.19
2022-09-27T15:52:42.834Z,99941.63
2022-09-27T15:55:16.835Z,99947.16
2022-09-27T15:57:45.783Z,99944.28
2022-09-27T16:00:17.762Z,99941.09
2022-09-27T16:02:45.068Z,99941.16
2022-09-27T16:05:12.813Z,99940.00
2022-09-27T16:07:39.459Z,99934.63
2022-09-27T16:10:17.902Z,99930.16
2022-09-27T16:12:45.083Z,99928.94
2022-09-27T16:15:13.122Z,99924.34
2022-09-27T16:17:42.377Z,99920.31
2022-09-27T16:20:18.548Z,99918.72
2022-09-27T16:22:45.321Z,99918.72
2022-09-27T16:25:12.233Z,99915.22
2022-09-27T16:27:38.745Z,99922.56
2022-09-27T16:30:05.723Z,99923.63
2022-09-27T16:32:32.089Z,99926.16
2022-09-27T16:34:58.428Z,99928.25
2022-09-27T16:37:24.889Z,99931.94
2022-09-27T16:39:51.235Z,99933.59
2022-09-27T16:42:18.079Z,99933.41
2022-09-27T16:44:44.389Z,99918.97
2022-09-27T16:47:10.809Z,99920.50
2022-09-27T16:49:55.823Z,99916.22
2022-09-27T16:52:22.179Z,99919.75
2022-09-27T16:54:48.480Z,99920.56
2022-09-27T16:57:14.804Z,99929.97
2022-09-27T16:59:41.134Z,99918.44
2022-09-27T17:02:09.426Z,99923.06
2022-09-27T17:04:35.816Z,99928.16
2022-09-27T17:07:02.167Z,99922.84
2022-09-27T17:09:28.475Z,99921.25
2022-09-27T17:11:56.209Z,99915.03
2022-09-27T17:14:22.644Z,99917.72
2022-09-27T17:16:49.160Z,99915.34
2022-09-27T17:19:16.766Z,99913.53
2022-09-27T17:21:45.940Z,99910.13
2022-09-27T17:24:12.703Z,99911.47
2022-09-27T17:26:39.647Z,99914.50
2022-09-27T17:29:06.429Z,99904.44
2022-09-27T17:31:34.758Z,99902.09
2022-09-27T17:34:02.476Z,99899.25
2022-09-27T17:36:34.546Z,99899.59
2022-09-27T17:39:01.425Z,99903.63
2022-09-27T17:41:28.919Z,99912.75
2022-09-27T17:43:58.762Z,99909.09
2022-09-27T17:46:30.787Z,99903.47
2022-09-27T17:49:16.388Z,99900.81
2022-09-27T17:51:46.184Z,99907.59
2022-09-27T17:54:12.974Z,99910.78
2022-09-27T17:56:41.022Z,99912.66
2022-09-27T17:59:09.407Z,99903.59
2022-09-27T18:01:39.568Z,99896.88
2022-09-27T18:04:11.419Z,99891.31
2022-09-27T18:06:43.945Z,99883.59
2022-09-27T18:09:12.363Z,99879.03
2022-09-27T18:11:39.663Z,99873.16
2022-09-27T18:14:06.502Z,99871.88
2022-09-27T18:16:40.901Z,99875.22
2022-09-27T18:19:10.021Z,99875.00
2022-09-27T18:21:36.428Z,99876.66
2022-09-27T18:24:06.576Z,99875.06
2022-09-27T18:26:36.403Z,99874.31
2022-09-27T18:29:07.805Z,99872.75
2022-09-27T18:31:34.410Z,99875.97
2022-09-27T18:34:02.821Z,99871.75
2022-09-27T18:36:29.134Z,99868.84
2022-09-27T18:39:01.055Z,99870.72
2022-09-27T18:41:29.838Z,99868.03
2022-09-27T18:43:58.903Z,99877.41
2022-09-27T18:46:38.194Z,99879.78
2022-09-27T18:49:06.947Z,99876.63
2022-09-27T18:51:33.968Z,99876.63
2022-09-27T18:54:03.028Z,99873.44
2022-09-27T18:56:30.063Z,99874.22
2022-09-27T18:58:57.387Z,99884.91
2022-09-27T19:01:25.679Z,99882.81
2022-09-27T19:03:52.656Z,99880.63
2022-09-27T19:06:21.766Z,99882.53
2022-09-27T19:08:53.667Z,99878.00
2022-09-27T19:11:20.052Z,99879.88
2022-09-27T19:13:51.726Z,99874.28
2022-09-27T19:16:18.600Z,99874.81
2022-09-27T19:18:45.021Z,99870.78
2022-09-27T19:21:16.967Z,99877.47
2022-09-27T19:23:43.763Z,99875.28
2022-09-27T19:26:13.834Z,99874.47
2022-09-27T19:28:43.393Z,99871.81
2022-09-27T19:31:13.375Z,99864.06
2022-09-27T19:33:40.090Z,99871.84
2022-09-27T19:36:08.955Z,99872.91
2022-09-27T19:38:36.834Z,99873.13
2022-09-27T19:41:05.137Z,99860.88
2022-09-27T19:43:31.695Z,99863.81
2022-09-27T19:46:11.060Z,99865.19
2022-09-27T19:48:38.314Z,99860.91
2022-09-27T19:51:05.614Z,99861.16
2022-09-27T19:53:33.584Z,99855.25
2022-09-27T19:56:01.793Z,99858.19
2022-09-27T19:58:30.204Z,99858.47
2022-09-27T20:01:07.527Z,99859.25
2022-09-27T20:03:36.108Z,99862.22
2022-09-27T20:06:04.209Z,99855.00
2022-09-27T20:08:31.036Z,99855.81
2022-09-27T20:11:05.203Z,99860.88
2022-09-27T20:13:33.674Z,99855.25
2022-09-27T20:16:03.577Z,99855.25
2022-09-27T20:18:29.989Z,99851.00
2022-09-27T20:21:00.896Z,99846.19
2022-09-27T20:23:28.026Z,99852.84
2022-09-27T20:26:00.254Z,99851.00
2022-09-27T20:28:27.669Z,99846.22
2022-09-27T20:31:01.934Z,99843.63
2022-09-27T20:33:49.456Z,99845.22
2022-09-27T20:36:20.208Z,99840.94
2022-09-27T20:38:51.560Z,99840.94
2022-09-27T20:41:20.169Z,99838.28
2022-09-27T20:43:47.436Z,99838.28
2022-09-27T20:46:16.812Z,99840.44
2022-09-27T20:48:43.449Z,99838.28
2022-09-27T20:51:14.129Z,99837.50
2022-09-27T20:53:45.034Z,99833.50
2022-09-27T20:56:22.033Z,99833.50
2022-09-27T20:58:50.017Z,99835.69
2022-09-27T21:01:18.034Z,99831.97
2022-09-27T21:03:45.021Z,99828.53
2022-09-27T21:06:16.082Z,99829.59
2022-09-27T21:08:42.892Z,99829.06
2022-09-27T21:11:11.783Z,99825.66
2022-09-27T21:13:39.487Z,99824.06
2022-09-27T21:16:08.660Z,99824.06
2022-09-27T21:18:35.292Z,99831.28
2022-09-27T21:21:04.973Z,99826.19
2022-09-27T21:23:33.019Z,99825.13
2022-09-27T21:26:05.479Z,99819.50
2022-09-27T21:28:43.363Z,99826.16
2022-09-27T21:31:12.338Z,99820.53
2022-09-27T21:33:39.820Z,99820.84
2022-09-27T21:36:08.364Z,99821.91
2022-09-27T21:38:35.241Z,99819.75
2022-09-27T21:41:04.359Z,99821.06
2022-09-27T21:43:33.092Z,99824.53
2022-09-27T21:46:02.518Z,99828.00
2022-09-27T21:48:29.736Z,99818.13
2022-09-27T21:51:11.926Z,99822.66
2022-09-27T21:53:41.228Z,99814.94
2022-09-27T21:56:08.970Z,99818.69
2022-09-27T21:58:37.953Z,99820.03
2022-09-27T22:01:13.049Z,99818.41
2022-09-27T22:03:42.627Z,99822.75
2022-09-27T22:06:12.032Z,99824.06
2022-09-27T22:08:38.824Z,99819.03
2022-09-27T22:11:05.737Z,99817.41
2022-09-27T22:13:32.436Z,99812.38
2022-09-27T22:16:07.127Z,99809.97
2022-09-27T22:18:35.271Z,99807.88
2022-09-27T22:21:03.880Z,99812.16
2022-09-27T22:23:30.212Z,99813.53
2022-09-27T22:25:57.212Z,99819.41
2022-09-27T22:28:24.316Z,99816.47
2022-09-27T22:30:50.715Z,99806.59
2022-09-27T22:33:17.040Z,99807.19
2022-09-27T22:35:47.296Z,99801.03
2022-09-27T22:38:13.970Z,99801.06
2022-09-27T22:40:40.651Z,99805.88
2022-09-27T22:43:07.468Z,99811.47
2022-09-27T22:45:33.863Z,99806.44
2022-09-27T22:48:00.356Z,99804.06
2022-09-27T22:50:27.245Z,99804.06
2022-09-27T22:52:53.598Z,99801.16
2022-09-27T22:55:19.965Z,99800.09
2022-09-27T22:57:46.375Z,99799.31
2022-09-27T23:00:13.405Z,99791.91
2022-09-27T23:02:40.020Z,99792.97
2022-09-27T23:05:06.959Z,99793.50
2022-09-27T23:07:33.255Z,99796.69
2022-09-27T23:09:59.667Z,99795.91
2022-09-27T23:12:25.976Z,99789.78
2022-09-27T23:14:52.302Z,99793.00
2022-09-27T23:17:20.305Z,99784.72
2022-09-27T23:19:46.644Z,99787.97
2022-09-27T23:22:13.035Z,99785.00
2022-09-27T23:24:39.413Z,99782.63
2022-09-27T23:27:23.960Z,99783.16
2022-09-27T23:29:50.734Z,99784.53
2022-09-27T23:32:17.032Z,99772.28
2022-09-27T23:34:43.378Z,99785.09
2022-09-27T23:37:09.823Z,99778.44
2022-09-27T23:39:36.223Z,99777.38
2022-09-27T23:42:03.164Z,99776.56
2022-09-27T23:44:29.555Z,99777.38
2022-09-27T23:47:00.140Z,99773.91
2022-09-27T23:49:27.732Z,99760.84
2022-09-27T23:51:55.312Z,99764.88
2022-09-27T23:54:21.651Z,99774.19
2022-09-27T23:56:48.090Z,99767.81
2022-09-27T23:59:14.884Z,99770.22
